createdAt,value
2019-05-22T00:01:11.659Z,13.00
2019-05-22T00:03:49.644Z,13.00
2019-05-22T00:06:27.126Z,12.90
2019-05-22T00:08:58.742Z,12.90
2019-05-22T00:11:30.334Z,12.90
2019-05-22T00:14:03.013Z,12.80
2019-05-22T00:16:37.065Z,12.80
2019-05-22T00:19:10.129Z,12.90
2019-05-22T00:21:43.259Z,12.80
2019-05-22T00:24:16.152Z,12.70
2019-05-22T00:26:49.091Z,12.70
2019-05-22T00:29:24.516Z,12.70
2019-05-22T00:31:56.636Z,12.60
2019-05-22T00:34:28.221Z,12.60
2019-05-22T00:37:00.402Z,12.60
2019-05-22T00:39:32.402Z,12.60
2019-05-22T00:42:06.546Z,12.50
2019-05-22T00:44:38.572Z,12.50
2019-05-22T00:47:14.939Z,12.50
2019-05-22T00:49:49.361Z,12.50
2019-05-22T00:52:42.786Z,12.50
2019-05-22T00:55:36.482Z,12.40
2019-05-22T00:58:29.012Z,12.40
2019-05-22T01:01:19.082Z,12.40
2019-05-22T01:03:50.964Z,12.40
2019-05-22T01:06:25.312Z,12.40
2019-05-22T01:08:57.804Z,12.40
2019-05-22T01:11:31.579Z,12.40
2019-05-22T01:14:04.609Z,12.40
2019-05-22T01:16:36.304Z,12.30
2019-05-22T01:19:08.391Z,12.30
2019-05-22T01:21:39.701Z,12.30
2019-05-22T01:24:12.802Z,12.30
2019-05-22T01:26:46.661Z,12.30
2019-05-22T01:29:19.633Z,12.40
2019-05-22T01:31:54.235Z,12.40
2019-05-22T01:34:30.419Z,12.40
2019-05-22T01:37:10.033Z,12.30
2019-05-22T01:40:06.696Z,12.30
2019-05-22T01:42:42.915Z,12.30
2019-05-22T01:45:18.774Z,12.30
2019-05-22T01:47:56.787Z,12.20
2019-05-22T01:50:43.661Z,12.20
2019-05-22T01:53:15.736Z,12.20
2019-05-22T01:55:48.231Z,12.20
2019-05-22T01:58:21.904Z,12.20
2019-05-22T02:00:55.544Z,12.10
2019-05-22T02:03:30.420Z,12.20
2019-05-22T02:06:02.369Z,12.10
2019-05-22T02:08:38.386Z,12.10
2019-05-22T02:11:14.017Z,12.10
2019-05-22T02:13:50.518Z,12.10
2019-05-22T02:16:22.079Z,12.10
2019-05-22T02:18:54.070Z,12.10
2019-05-22T02:21:26.989Z,12.10
2019-05-22T02:23:59.393Z,12.10
2019-05-22T02:26:32.251Z,12.00
2019-05-22T02:29:05.770Z,12.10
2019-05-22T02:31:37.132Z,12.10
2019-05-22T02:34:09.507Z,12.00
2019-05-22T02:36:42.642Z,12.00
2019-05-22T02:39:23.812Z,12.10
2019-05-22T02:41:59.135Z,12.10
2019-05-22T02:44:32.749Z,12.10
2019-05-22T02:47:18.218Z,12.20
2019-05-22T02:49:41.356Z,12.10
2019-05-22T02:52:15.523Z,12.20
2019-05-22T02:54:47.975Z,12.20
2019-05-22T02:57:22.162Z,12.20
2019-05-22T02:59:53.905Z,12.30
2019-05-22T03:02:26.300Z,12.30
2019-05-22T03:05:03.662Z,12.40
2019-05-22T03:07:36.365Z,12.40
2019-05-22T03:10:12.939Z,12.50
2019-05-22T03:12:45.883Z,12.60
2019-05-22T03:15:20.115Z,12.60
2019-05-22T03:17:55.516Z,12.70
2019-05-22T03:20:27.418Z,12.70
2019-05-22T03:23:09.945Z,12.70
2019-05-22T03:25:43.754Z,12.80
2019-05-22T03:28:15.755Z,13.00
2019-05-22T03:30:47.428Z,13.10
2019-05-22T03:33:19.597Z,13.40
2019-05-22T03:35:53.174Z,14.40
2019-05-22T03:38:24.622Z,14.60
2019-05-22T03:40:56.002Z,14.50
2019-05-22T03:43:30.328Z,15.40
2019-05-22T03:46:06.556Z,16.50
2019-05-22T03:48:38.190Z,17.40
2019-05-22T03:51:13.584Z,18.10
2019-05-22T03:53:46.585Z,18.50
2019-05-22T03:56:20.043Z,18.70
2019-05-22T03:58:52.134Z,18.70
2019-05-22T04:01:24.899Z,19.40
2019-05-22T04:03:57.028Z,19.90
2019-05-22T04:06:28.761Z,19.90
2019-05-22T04:09:05.672Z,20.50
2019-05-22T04:11:41.857Z,20.60
2019-05-22T04:14:14.461Z,20.80
2019-05-22T04:16:46.990Z,20.90
2019-05-22T04:19:18.317Z,20.70
2019-05-22T04:21:50.080Z,21.30
2019-05-22T04:24:22.357Z,21.60
2019-05-22T04:26:53.747Z,22.30
2019-05-22T04:29:25.725Z,22.30
2019-05-22T04:32:00.689Z,23.20
2019-05-22T04:34:32.904Z,23.00
2019-05-22T04:37:05.594Z,22.50
2019-05-22T04:39:41.573Z,22.30
2019-05-22T04:42:13.919Z,22.30
2019-05-22T04:45:12.810Z,23.20
2019-05-22T04:47:56.985Z,22.60
2019-05-22T04:50:30.079Z,22.20
2019-05-22T04:53:02.190Z,20.10
2019-05-22T04:55:34.994Z,19.00
2019-05-22T04:58:08.510Z,17.80
2019-05-22T05:00:40.073Z,17.30
2019-05-22T05:03:13.134Z,17.00
2019-05-22T05:05:46.492Z,16.70
2019-05-22T05:08:18.022Z,16.20
2019-05-22T05:10:52.049Z,16.00
2019-05-22T05:13:24.462Z,15.90
2019-05-22T05:15:56.214Z,15.70
2019-05-22T05:18:27.679Z,15.50
2019-05-22T05:20:59.493Z,15.40
2019-05-22T05:23:31.436Z,15.50
2019-05-22T05:26:02.908Z,15.50
2019-05-22T05:28:34.257Z,15.50
2019-05-22T05:31:06.515Z,17.10
2019-05-22T05:33:55.645Z,18.90
2019-05-22T05:36:28.530Z,18.30
2019-05-22T05:39:01.662Z,17.50
2019-05-22T05:41:33.821Z,17.00
2019-05-22T05:44:05.660Z,16.70
2019-05-22T05:46:38.186Z,16.40
2019-05-22T05:49:11.243Z,16.20
2019-05-22T05:51:45.606Z,15.80
2019-05-22T05:54:19.183Z,15.60
2019-05-22T05:56:53.251Z,15.60
2019-05-22T05:59:26.720Z,15.70
2019-05-22T06:02:00.716Z,15.50
2019-05-22T06:04:38.088Z,15.60
2019-05-22T06:07:21.044Z,15.70
2019-05-22T06:09:59.118Z,15.60
2019-05-22T06:12:30.652Z,15.70
2019-05-22T06:15:02.344Z,15.80
2019-05-22T06:18:10.747Z,16.90
2019-05-22T06:20:42.913Z,17.80
2019-05-22T06:23:55.663Z,17.70
2019-05-22T06:27:11.297Z,17.70
2019-05-22T06:29:59.522Z,17.40
2019-05-22T06:36:12.474Z,16.70
2019-05-22T06:39:16.809Z,16.20
2019-05-22T06:41:49.929Z,16.30
2019-05-22T06:44:37.101Z,16.40
2019-05-22T06:47:21.038Z,16.20
2019-05-22T06:49:57.935Z,16.10
2019-05-22T06:52:29.897Z,16.00
2019-05-22T06:55:01.680Z,16.10
2019-05-22T06:57:35.219Z,16.30
2019-05-22T07:00:20.745Z,16.30
2019-05-22T07:02:52.999Z,16.20
2019-05-22T07:05:25.563Z,16.10
2019-05-22T07:07:58.063Z,16.20
2019-05-22T07:10:30.640Z,16.20
2019-05-22T07:13:03.743Z,16.20
2019-05-22T07:15:48.784Z,16.20
2019-05-22T07:18:22.756Z,16.10
2019-05-22T07:20:57.005Z,16.20
2019-05-22T07:23:29.493Z,16.20
2019-05-22T07:26:02.393Z,16.10
2019-05-22T07:28:35.398Z,16.00
2019-05-22T07:31:07.261Z,16.10
2019-05-22T07:33:38.760Z,16.20
2019-05-22T07:36:15.280Z,16.30
2019-05-22T07:38:44.629Z,16.20
2019-05-22T07:41:18.094Z,16.30
2019-05-22T07:43:49.784Z,16.30
2019-05-22T07:46:21.600Z,16.30
2019-05-22T07:48:54.148Z,16.60
2019-05-22T07:51:27.345Z,16.80
2019-05-22T07:53:59.019Z,16.80
2019-05-22T07:56:30.886Z,16.90
2019-05-22T07:59:02.399Z,16.90
2019-05-22T08:01:34.841Z,16.90
2019-05-22T08:04:06.745Z,16.80
2019-05-22T08:06:38.847Z,16.70
2019-05-22T08:09:12.243Z,16.70
2019-05-22T08:11:43.854Z,16.70
2019-05-22T08:14:16.468Z,16.70
2019-05-22T08:16:49.125Z,16.70
2019-05-22T08:19:20.775Z,16.80
2019-05-22T08:22:06.223Z,16.90
2019-05-22T08:24:27.189Z,16.90
2019-05-22T08:26:58.922Z,16.90
2019-05-22T08:29:31.375Z,16.90
2019-05-22T08:32:05.254Z,16.90
2019-05-22T08:34:37.402Z,17.00
2019-05-22T08:37:12.674Z,17.00
2019-05-22T08:39:45.001Z,17.00
2019-05-22T08:42:19.672Z,17.00
2019-05-22T08:44:51.184Z,16.90
2019-05-22T08:47:23.640Z,16.80
2019-05-22T08:49:55.616Z,16.80
2019-05-22T08:52:28.953Z,16.60
2019-05-22T08:55:02.186Z,16.60
2019-05-22T08:57:37.123Z,16.50
2019-05-22T09:00:12.460Z,16.50
2019-05-22T09:02:44.883Z,16.40
2019-05-22T09:05:20.753Z,16.20
2019-05-22T09:07:49.930Z,16.20
2019-05-22T09:10:25.772Z,16.30
2019-05-22T09:12:54.800Z,16.40
2019-05-22T09:15:26.885Z,16.40
2019-05-22T09:17:59.150Z,16.50
2019-05-22T09:20:47.733Z,16.60
2019-05-22T09:23:06.498Z,16.50
2019-05-22T09:25:37.955Z,16.20
2019-05-22T09:28:10.408Z,15.90
2019-05-22T09:30:41.837Z,15.90
2019-05-22T09:33:13.620Z,15.80
2019-05-22T09:35:46.111Z,15.90
2019-05-22T09:38:18.634Z,15.90
2019-05-22T09:40:50.769Z,15.80
2019-05-22T09:43:22.140Z,15.80
2019-05-22T09:45:53.629Z,15.80
2019-05-22T09:48:25.156Z,15.90
2019-05-22T09:50:57.712Z,16.00
2019-05-22T09:53:29.793Z,16.20
2019-05-22T09:56:01.370Z,16.30
2019-05-22T09:58:33.526Z,16.30
2019-05-22T10:01:05.626Z,16.30
2019-05-22T10:03:37.336Z,16.30
2019-05-22T10:06:09.320Z,16.40
2019-05-22T10:08:40.818Z,16.30
2019-05-22T10:11:12.761Z,16.20
2019-05-22T10:13:44.493Z,16.20
2019-05-22T10:16:16.234Z,16.20
2019-05-22T10:18:47.775Z,16.20
2019-05-22T10:21:20.077Z,16.20
2019-05-22T10:23:51.443Z,16.20
2019-05-22T10:26:23.733Z,16.30
2019-05-22T10:28:56.282Z,16.30
2019-05-22T10:31:28.107Z,16.30
2019-05-22T10:34:00.367Z,16.50
2019-05-22T10:36:31.850Z,16.50
2019-05-22T10:39:04.245Z,16.40
2019-05-22T10:41:36.823Z,16.60
2019-05-22T10:44:08.335Z,16.70
2019-05-22T10:46:40.197Z,16.70
2019-05-22T10:49:11.790Z,16.70
2019-05-22T10:51:43.282Z,16.60
2019-05-22T10:54:14.718Z,16.60
2019-05-22T10:56:46.241Z,16.50
2019-05-22T10:59:18.004Z,16.30
2019-05-22T11:01:49.585Z,16.40
2019-05-22T11:04:23.004Z,16.40
2019-05-22T11:06:55.307Z,16.40
2019-05-22T11:09:28.231Z,16.50
2019-05-22T11:12:00.564Z,16.70
2019-05-22T11:14:32.298Z,16.80
2019-05-22T11:17:04.026Z,17.10
2019-05-22T11:19:35.410Z,17.30
2019-05-22T11:22:07.669Z,17.50
2019-05-22T11:24:39.129Z,17.70
2019-05-22T11:27:11.716Z,18.00
2019-05-22T11:29:43.737Z,18.50
2019-05-22T11:32:15.457Z,18.50
2019-05-22T11:34:47.617Z,18.40
2019-05-22T11:37:20.550Z,18.20
2019-05-22T11:39:53.142Z,18.30
2019-05-22T11:42:25.733Z,18.10
2019-05-22T11:44:57.825Z,18.20
2019-05-22T11:47:30.369Z,18.30
2019-05-22T11:50:02.366Z,18.50
2019-05-22T11:52:34.795Z,18.30
2019-05-22T11:55:08.474Z,18.40
2019-05-22T11:57:40.489Z,18.20
2019-05-22T12:00:12.590Z,18.20
2019-05-22T12:02:45.691Z,18.20
2019-05-22T12:05:19.087Z,18.10
2019-05-22T12:07:51.383Z,18.20
2019-05-22T12:10:23.904Z,18.40
2019-05-22T12:12:56.299Z,18.40
2019-05-22T12:15:29.790Z,18.40
2019-05-22T12:18:01.975Z,18.50
2019-05-22T12:20:35.003Z,18.80
2019-05-22T12:23:07.281Z,18.90
2019-05-22T12:25:38.703Z,18.90
2019-05-22T12:28:10.618Z,19.00
2019-05-22T12:30:42.714Z,19.10
2019-05-22T12:33:14.719Z,19.20
2019-05-22T12:35:46.936Z,19.10
2019-05-22T12:38:19.271Z,19.00
2019-05-22T12:40:51.163Z,18.80
2019-05-22T12:43:23.981Z,18.60
2019-05-22T12:45:55.623Z,18.50
2019-05-22T12:48:28.213Z,18.70
2019-05-22T12:51:00.375Z,19.00
2019-05-22T12:53:33.072Z,19.00
2019-05-22T12:56:05.316Z,19.30
2019-05-22T12:58:37.483Z,19.40
2019-05-22T13:01:09.411Z,19.40
2019-05-22T13:03:42.305Z,19.40
2019-05-22T13:06:14.445Z,19.50
2019-05-22T13:08:46.302Z,19.40
2019-05-22T13:11:17.861Z,19.60
2019-05-22T13:13:50.340Z,19.70
2019-05-22T13:16:22.136Z,19.50
2019-05-22T13:18:55.131Z,19.20
2019-05-22T13:21:34.268Z,18.90
2019-05-22T13:24:15.832Z,18.70
2019-05-22T13:26:47.780Z,18.50
2019-05-22T13:29:20.199Z,18.40
2019-05-22T13:31:54.040Z,18.60
2019-05-22T13:34:28.553Z,18.80
2019-05-22T13:37:00.042Z,18.90
2019-05-22T13:39:32.234Z,18.80
2019-05-22T13:42:03.829Z,19.00
2019-05-22T13:44:35.836Z,19.20
2019-05-22T13:47:07.748Z,19.50
2019-05-22T13:49:41.101Z,19.70
2019-05-22T13:52:13.107Z,19.80
2019-05-22T13:54:45.525Z,20.20
2019-05-22T13:57:18.263Z,20.40
2019-05-22T13:59:50.114Z,20.50
2019-05-22T14:02:21.906Z,20.30
2019-05-22T14:04:55.774Z,20.10
2019-05-22T14:07:28.159Z,19.90
2019-05-22T14:09:59.906Z,19.90
2019-05-22T14:12:31.661Z,19.80
2019-05-22T14:15:03.732Z,19.60
2019-05-22T14:17:35.255Z,19.70
2019-05-22T14:20:08.010Z,19.80
2019-05-22T14:22:39.446Z,19.80
2019-05-22T14:25:11.291Z,19.80
2019-05-22T14:27:43.190Z,19.80
2019-05-22T14:30:16.113Z,19.80
2019-05-22T14:32:47.650Z,19.80
2019-05-22T14:35:22.213Z,19.60
2019-05-22T14:37:53.746Z,19.60
2019-05-22T14:40:26.120Z,19.40
2019-05-22T14:42:57.434Z,19.20
2019-05-22T14:45:29.929Z,19.00
2019-05-22T14:48:01.433Z,19.00
2019-05-22T14:50:33.457Z,19.00
2019-05-22T14:53:05.705Z,19.00
2019-05-22T14:55:39.154Z,18.90
2019-05-22T14:58:11.021Z,18.90
2019-05-22T15:00:44.653Z,19.00
2019-05-22T15:03:16.893Z,19.20
2019-05-22T15:05:48.541Z,19.30
2019-05-22T15:08:19.927Z,19.20
2019-05-22T15:10:51.758Z,19.20
2019-05-22T15:13:24.259Z,19.30
2019-05-22T15:15:55.975Z,19.50
2019-05-22T15:18:27.471Z,19.60
2019-05-22T15:21:08.757Z,19.60
2019-05-22T15:23:40.648Z,19.30
2019-05-22T15:26:12.805Z,19.10
2019-05-22T15:28:44.482Z,19.10
2019-05-22T15:31:16.087Z,19.10
2019-05-22T15:33:47.630Z,19.20
2019-05-22T15:36:21.873Z,19.30
2019-05-22T15:38:55.696Z,19.20
2019-05-22T15:41:27.335Z,19.20
2019-05-22T15:43:59.434Z,19.40
2019-05-22T15:46:32.928Z,19.70
2019-05-22T15:49:07.763Z,20.00
2019-05-22T15:51:40.441Z,20.20
2019-05-22T15:54:12.997Z,20.20
2019-05-22T15:56:46.185Z,20.40
2019-05-22T15:59:20.366Z,20.60
2019-05-22T16:01:52.884Z,20.60
2019-05-22T16:04:25.458Z,20.50
2019-05-22T16:06:59.010Z,20.30
2019-05-22T16:09:31.839Z,20.10
2019-05-22T16:12:04.695Z,19.80
2019-05-22T16:14:37.744Z,19.70
2019-05-22T16:17:10.051Z,19.40
2019-05-22T16:19:42.454Z,19.40
2019-05-22T16:22:15.055Z,19.10
2019-05-22T16:24:46.958Z,19.00
2019-05-22T16:27:18.483Z,19.10
2019-05-22T16:29:50.380Z,19.10
2019-05-22T16:32:23.515Z,19.10
2019-05-22T16:34:55.280Z,18.80
2019-05-22T16:37:26.846Z,18.80
2019-05-22T16:39:58.685Z,18.80
2019-05-22T16:42:32.538Z,18.80
2019-05-22T16:45:04.904Z,18.70
2019-05-22T16:47:37.983Z,18.50
2019-05-22T16:50:12.446Z,18.50
2019-05-22T16:52:46.093Z,18.30
2019-05-22T16:55:18.256Z,18.20
2019-05-22T16:57:49.982Z,18.00
2019-05-22T17:00:21.675Z,17.90
2019-05-22T17:02:54.595Z,17.90
2019-05-22T17:05:26.382Z,18.00
2019-05-22T17:07:59.133Z,18.30
2019-05-22T17:10:31.149Z,18.30
2019-05-22T17:13:04.186Z,18.30
2019-05-22T17:15:37.074Z,18.40
2019-05-22T17:18:10.325Z,18.50
2019-05-22T17:20:43.096Z,18.70
2019-05-22T17:23:15.291Z,18.70
2019-05-22T17:25:47.298Z,18.80
2019-05-22T17:28:19.465Z,18.90
2019-05-22T17:30:51.583Z,18.80
2019-05-22T17:33:23.626Z,18.80
2019-05-22T17:35:56.843Z,18.80
2019-05-22T17:38:29.403Z,18.80
2019-05-22T17:41:02.944Z,18.50
2019-05-22T17:43:35.238Z,18.50
2019-05-22T17:46:07.055Z,18.50
2019-05-22T17:48:42.155Z,18.50
2019-05-22T17:51:14.356Z,18.40
2019-05-22T17:53:45.989Z,18.40
2019-05-22T17:56:17.969Z,18.30
2019-05-22T17:58:49.420Z,18.30
2019-05-22T18:01:21.831Z,18.20
2019-05-22T18:03:53.857Z,18.30
2019-05-22T18:06:25.145Z,18.30
2019-05-22T18:08:56.630Z,18.30
2019-05-22T18:11:28.100Z,18.20
2019-05-22T18:14:04.517Z,18.20
2019-05-22T18:16:36.413Z,18.10
2019-05-22T18:19:08.926Z,18.10
2019-05-22T18:21:41.387Z,18.20
2019-05-22T18:24:13.536Z,18.10
2019-05-22T18:26:44.986Z,18.00
2019-05-22T18:29:16.656Z,17.90
2019-05-22T18:31:47.999Z,17.80
2019-05-22T18:34:19.488Z,17.80
2019-05-22T18:36:50.959Z,17.70
2019-05-22T18:39:23.343Z,17.70
2019-05-22T18:41:54.767Z,17.70
2019-05-22T18:44:26.253Z,17.60
2019-05-22T18:46:57.784Z,17.60
2019-05-22T18:49:29.243Z,17.60
2019-05-22T18:52:01.776Z,17.50
2019-05-22T18:54:33.182Z,17.40
2019-05-22T18:57:04.923Z,17.40
2019-05-22T18:59:36.342Z,17.40
2019-05-22T19:02:08.710Z,17.30
2019-05-22T19:04:40.170Z,17.30
2019-05-22T19:07:12.066Z,17.30
2019-05-22T19:09:43.670Z,17.10
2019-05-22T19:12:16.388Z,17.10
2019-05-22T19:14:48.093Z,17.10
2019-05-22T19:17:19.592Z,17.00
2019-05-22T19:19:51.205Z,17.00
2019-05-22T19:22:22.780Z,16.90
2019-05-22T19:24:54.297Z,16.90
2019-05-22T19:27:25.608Z,16.90
2019-05-22T19:29:57.070Z,16.90
2019-05-22T19:32:28.598Z,16.90
2019-05-22T19:35:00.065Z,16.80
2019-05-22T19:37:31.838Z,16.80
2019-05-22T19:40:03.500Z,16.70
2019-05-22T19:42:35.107Z,16.80
2019-05-22T19:45:07.479Z,16.90
2019-05-22T19:47:40.599Z,16.80
2019-05-22T19:50:22.698Z,16.80
2019-05-22T19:52:46.380Z,16.80
2019-05-22T19:55:19.296Z,16.80
2019-05-22T19:57:51.566Z,16.80
2019-05-22T20:00:23.900Z,16.70
2019-05-22T20:02:56.332Z,16.60
2019-05-22T20:05:28.232Z,16.60
2019-05-22T20:08:00.048Z,16.50
2019-05-22T20:10:32.355Z,16.50
2019-05-22T20:13:05.830Z,16.50
2019-05-22T20:15:37.877Z,16.50
2019-05-22T20:18:10.797Z,16.50
2019-05-22T20:20:43.592Z,16.50
2019-05-22T20:23:15.970Z,16.40
2019-05-22T20:25:48.802Z,16.40
2019-05-22T20:28:20.598Z,16.40
2019-05-22T20:30:52.094Z,16.30
2019-05-22T20:33:26.884Z,16.40
2019-05-22T20:35:56.784Z,16.40
2019-05-22T20:38:29.682Z,16.30
2019-05-22T20:41:01.417Z,16.30
2019-05-22T20:43:35.143Z,16.30
2019-05-22T20:46:06.917Z,16.30
2019-05-22T20:48:38.275Z,16.30
2019-05-22T20:51:12.207Z,16.30
2019-05-22T20:53:54.014Z,16.20
2019-05-22T20:56:21.393Z,16.20
2019-05-22T20:58:53.457Z,16.10
2019-05-22T21:01:25.022Z,16.10
2019-05-22T21:03:58.184Z,16.10
2019-05-22T21:06:31.890Z,16.10
2019-05-22T21:09:07.970Z,16.00
2019-05-22T21:11:41.826Z,16.00
2019-05-22T21:14:13.291Z,16.00
2019-05-22T21:16:45.237Z,16.00
2019-05-22T21:19:17.269Z,15.90
2019-05-22T21:21:49.436Z,15.90
2019-05-22T21:24:21.038Z,15.80
2019-05-22T21:26:52.759Z,15.80
2019-05-22T21:29:25.737Z,15.80
2019-05-22T21:31:58.740Z,15.70
2019-05-22T21:34:30.772Z,15.70
2019-05-22T21:37:02.264Z,15.70
2019-05-22T21:39:35.542Z,15.60
2019-05-22T21:42:07.839Z,15.70
2019-05-22T21:44:40.340Z,15.60
2019-05-22T21:47:14.092Z,15.60
2019-05-22T21:49:45.553Z,15.50
2019-05-22T21:52:17.504Z,15.50
2019-05-22T21:54:49.733Z,15.50
2019-05-22T21:57:21.438Z,15.50
2019-05-22T21:59:53.898Z,15.50
2019-05-22T22:02:33.624Z,15.40
2019-05-22T22:05:07.999Z,15.30
2019-05-22T22:07:40.737Z,15.30
2019-05-22T22:10:14.763Z,15.30
2019-05-22T22:12:48.135Z,15.10
2019-05-22T22:15:22.247Z,15.10
2019-05-22T22:17:53.780Z,15.00
2019-05-22T22:20:25.180Z,15.00
2019-05-22T22:22:57.411Z,14.90
2019-05-22T22:25:29.697Z,14.90
2019-05-22T22:28:01.690Z,14.90
2019-05-22T22:30:39.208Z,15.00
2019-05-22T22:33:12.031Z,14.90
2019-05-22T22:35:44.630Z,15.00
2019-05-22T22:38:16.880Z,15.00
2019-05-22T22:40:50.063Z,15.00
2019-05-22T22:43:23.521Z,15.00
2019-05-22T22:46:09.733Z,15.00
2019-05-22T22:48:43.397Z,15.00
2019-05-22T22:51:18.064Z,15.00
2019-05-22T22:53:50.303Z,14.90
2019-05-22T22:56:22.427Z,14.90
2019-05-22T22:58:54.015Z,14.80
2019-05-22T23:01:30.784Z,14.80
2019-05-22T23:04:05.679Z,14.80
2019-05-22T23:06:38.579Z,14.80
2019-05-22T23:09:12.600Z,14.80
2019-05-22T23:11:45.892Z,14.80
2019-05-22T23:14:17.900Z,14.80
2019-05-22T23:16:50.275Z,14.80
2019-05-22T23:19:47.387Z,14.80
2019-05-22T23:22:19.724Z,14.70
2019-05-22T23:24:53.379Z,14.70
2019-05-22T23:27:27.436Z,14.70
2019-05-22T23:30:00.224Z,14.60
2019-05-22T23:32:33.579Z,14.70
2019-05-22T23:35:05.605Z,14.70
2019-05-22T23:37:37.416Z,14.70
2019-05-22T23:40:10.959Z,14.60
2019-05-22T23:42:44.584Z,14.50
2019-05-22T23:45:20.206Z,14.50
2019-05-22T23:48:12.154Z,14.50
2019-05-22T23:50:44.786Z,14.60
2019-05-22T23:53:21.071Z,14.50
2019-05-22T23:55:54.372Z,14.50
2019-05-22T23:58:27.726Z,14.50
